Augustinopolis, Brazil
Current Conditions -  °F | °C
As of 9:00 PM on Saturday 22 Nov 2014 (Local Time) from SBIZ Reporting Station
Few Clouds Few Clouds  
Wind Chill: 84°   Ceiling: Unl
Heat Index: 92°   Visibility: 6mi
Dew Point: 75°   Wind: 3mph
Humidity: 74%   Direction: 210°SSW
Pressure: 29.8"   Gusts: NA
Location:  5.46°S, 47.9°W
Report Text: SBIZ 230000Z 21003KT 9999 FEW015 29/24 Q1009
Loading
Personal Weather Stations






























Interactive Weather Map New forecast layout! Learn more

10-Day Weather Forecast

Advertisements
Track Severe Weather on mobile